Time;durP1;ratioP1;P1;durP2;ratioP2;P2;SDS_P1;SDS_P2;PMS_P1;PMS_P2;Temp;Humidity;BMP_temperature;BMP_pressure;BME280_temperature;BME280_humidity;BME280_pressure;Samples;Min_cycle;Max_cycle;Signal;HPM_P1;HPM_P2
2024/01/19 00:01:58;;;;;;;43.42;28.77;;;;;;;6.05;100.00;99470.75;5029774;28;20026;-80
2024/01/19 00:04:24;;;;;;;43.17;29.65;;;;;;;5.79;100.00;99419.34;5029875;28;20114;-78
2024/01/19 00:06:50;;;;;;;46.42;30.65;;;;;;;6.05;100.00;99476.75;5029773;28;20520;-76
2024/01/19 00:09:15;;;;;;;43.78;28.60;;;;;;;6.04;100.00;99469.00;5029492;28;20068;-77
2024/01/19 00:11:41;;;;;;;42.90;28.70;;;;;;;6.17;100.00;99496.84;5028194;28;20021;-77
2024/01/19 00:14:06;;;;;;;47.60;29.60;;;;;;;6.05;100.00;99475.88;5028112;28;20029;-76
2024/01/19 00:16:32;;;;;;;38.42;26.83;;;;;;;6.22;100.00;99505.59;5029635;28;20053;-76
2024/01/19 00:18:57;;;;;;;40.20;26.98;;;;;;;6.16;100.00;99497.66;5029184;28;20025;-75
2024/01/19 00:21:24;;;;;;;39.17;26.77;;;;;;;6.11;100.00;99487.22;5029357;28;20021;-76
2024/01/19 00:23:50;;;;;;;41.58;27.13;;;;;;;6.27;100.00;99505.78;5029626;28;20065;-76
2024/01/19 00:26:15;;;;;;;39.08;26.63;;;;;;;6.21;100.00;99490.16;5029543;28;20454;-76
2024/01/19 00:28:41;;;;;;;39.97;27.25;;;;;;;6.33;100.00;99511.16;5029802;28;20105;-76
2024/01/19 00:31:07;;;;;;;40.58;28.20;;;;;;;6.27;100.00;99514.34;5029451;28;20034;-76
2024/01/19 00:33:33;;;;;;;39.10;27.17;;;;;;;5.88;100.00;99453.00;5029618;28;20034;-74
2024/01/19 00:35:58;;;;;;;38.22;25.52;;;;;;;6.24;100.00;99521.91;5029275;28;20033;-76
2024/01/19 00:38:23;;;;;;;38.70;24.77;;;;;;;6.29;100.00;99537.44;5030299;28;20064;-76
2024/01/19 00:40:49;;;;;;;39.22;26.20;;;;;;;6.23;100.00;99524.41;5028986;28;20029;-76
2024/01/19 00:43:14;;;;;;;39.03;26.52;;;;;;;6.23;100.00;99539.78;5029050;28;20159;-76
2024/01/19 00:45:40;;;;;;;38.65;27.05;;;;;;;6.05;100.00;99506.63;5029817;28;20399;-76
2024/01/19 00:48:05;;;;;;;43.92;28.02;;;;;;;6.25;100.00;99539.03;5029526;28;20021;-78
2024/01/19 00:50:31;;;;;;;42.13;27.52;;;;;;;5.74;100.00;99449.88;5027925;28;20030;-79
2024/01/19 00:52:56;;;;;;;39.80;26.10;;;;;;;6.13;100.00;99518.94;5028371;28;20115;-77
2024/01/19 00:55:22;;;;;;;43.60;27.92;;;;;;;6.15;100.00;99519.84;5029541;28;20025;-77
2024/01/19 00:57:47;;;;;;;46.08;29.40;;;;;;;5.70;100.00;99448.03;5017762;28;20044;-75
2024/01/19 01:00:13;;;;;;;41.60;27.73;;;;;;;5.90;100.00;99484.66;5029048;28;20029;-77
2024/01/19 01:02:38;;;;;;;47.08;31.25;;;;;;;6.05;100.00;99522.00;5028760;28;20045;-77
2024/01/19 01:05:05;;;;;;;44.97;28.48;;;;;;;6.02;100.00;99511.63;5028774;28;20112;-76
2024/01/19 01:07:30;;;;;;;45.05;31.38;;;;;;;5.76;100.00;99483.25;5029500;28;20067;-76
2024/01/19 01:09:56;;;;;;;44.42;29.85;;;;;;;6.12;100.00;99535.13;5029337;28;20030;-76
2024/01/19 01:12:21;;;;;;;48.67;31.05;;;;;;;5.97;100.00;99513.97;5028236;28;20029;-75
2024/01/19 01:14:47;;;;;;;54.17;33.28;;;;;;;5.90;100.00;99500.03;5028902;28;20100;-77
2024/01/19 01:17:13;;;;;;;52.72;33.15;;;;;;;6.03;100.00;99510.81;5029693;28;20056;-77
2024/01/19 01:19:38;;;;;;;48.22;32.65;;;;;;;5.78;100.00;99482.50;5029029;28;20033;-77
2024/01/19 01:22:05;;;;;;;49.88;33.72;;;;;;;6.13;100.00;99515.47;5029086;28;20586;-78
2024/01/19 01:24:31;;;;;;;52.85;34.35;;;;;;;6.17;100.00;99535.31;5029049;28;20041;-78
2024/01/19 01:26:57;;;;;;;50.78;34.05;;;;;;;5.80;100.00;99472.31;5029341;28;20030;-77
2024/01/19 01:29:23;;;;;;;53.42;35.17;;;;;;;6.04;100.00;99513.41;5028485;28;20516;-77
2024/01/19 01:31:50;;;;;;;53.53;34.65;;;;;;;5.59;100.00;99433.91;5028354;28;20431;-76
2024/01/19 01:34:16;;;;;;;52.70;34.53;;;;;;;5.74;100.00;99460.13;5028655;28;20130;-77
2024/01/19 01:36:42;;;;;;;57.97;35.92;;;;;;;5.56;100.00;99434.66;5025944;28;20563;-78
2024/01/19 01:39:07;;;;;;;55.55;36.13;;;;;;;5.96;100.00;99492.59;5028345;28;20030;-79
2024/01/19 01:41:33;;;;;;;55.05;37.15;;;;;;;5.66;100.00;99433.34;5025158;28;20473;-80
2024/01/19 01:43:59;;;;;;;53.75;34.97;;;;;;;5.64;100.00;99433.28;5028483;28;20037;-77
2024/01/19 01:46:24;;;;;;;53.80;34.13;;;;;;;5.62;100.00;99421.22;5028194;28;20028;-79
2024/01/19 01:48:50;;;;;;;51.55;32.92;;;;;;;5.83;100.00;99464.75;5028456;28;20037;-80
2024/01/19 01:51:15;;;;;;;57.47;36.20;;;;;;;5.88;100.00;99463.25;5028608;28;20746;-79
2024/01/19 01:53:41;;;;;;;59.75;36.42;;;;;;;6.10;100.00;99471.81;5027875;28;20037;-78
2024/01/19 01:56:07;;;;;;;55.63;36.47;;;;;;;6.06;100.00;99457.13;5028672;28;20029;-78
2024/01/19 01:58:33;;;;;;;55.40;36.05;;;;;;;5.77;100.00;99387.66;5027128;28;20068;-79
2024/01/19 02:00:59;;;;;;;52.47;34.25;;;;;;;6.16;100.00;99446.41;5026782;28;20018;-78
2024/01/19 02:03:24;;;;;;;50.53;33.42;;;;;;;6.29;100.00;99451.19;5029357;28;20031;-78
2024/01/19 02:05:50;;;;;;;49.53;32.45;;;;;;;5.93;100.00;99386.56;5030891;28;20033;-77
2024/01/19 02:08:15;;;;;;;49.40;33.58;;;;;;;6.25;100.00;99425.38;5030400;28;20037;-78
2024/01/19 02:10:41;;;;;;;52.50;33.83;;;;;;;6.23;100.00;99419.31;5029913;28;20406;-77
2024/01/19 02:13:07;;;;;;;52.78;33.03;;;;;;;6.17;100.00;99406.28;5032048;28;20033;-79
2024/01/19 02:15:35;;;;;;;52.25;33.83;;;;;;;5.97;100.00;99386.75;5031173;28;20045;-76
2024/01/19 02:18:01;;;;;;;51.92;33.35;;;;;;;6.10;100.00;99392.38;5032010;28;20073;-77
2024/01/19 02:20:26;;;;;;;52.42;32.40;;;;;;;5.85;100.00;99352.97;5031828;28;20118;-76
2024/01/19 02:22:54;;;;;;;49.40;33.63;;;;;;;5.90;100.00;99348.91;5031320;28;20025;-77
2024/01/19 02:25:20;;;;;;;53.45;33.97;;;;;;;6.31;100.00;99417.94;5031867;28;20036;-77
2024/01/19 02:27:46;;;;;;;52.97;34.88;;;;;;;6.44;100.00;99447.44;5030853;28;20025;-77
2024/01/19 02:30:12;;;;;;;50.38;33.10;;;;;;;6.24;100.00;99410.81;5031769;28;20124;-77
2024/01/19 02:32:37;;;;;;;51.53;34.47;;;;;;;6.53;100.00;99465.75;5031769;28;20044;-77
2024/01/19 02:35:04;;;;;;;51.10;33.97;;;;;;;6.57;100.00;99472.72;5032474;28;20733;-77
2024/01/19 02:37:30;;;;;;;51.28;32.90;;;;;;;6.21;100.00;99396.19;5030412;28;20420;-77
2024/01/19 02:39:55;;;;;;;51.75;33.70;;;;;;;6.39;100.00;99431.00;5031346;28;20033;-77
2024/01/19 02:42:21;;;;;;;53.88;33.97;;;;;;;6.60;100.00;99456.56;5031995;28;20041;-78
2024/01/19 02:44:46;;;;;;;48.75;33.22;;;;;;;6.56;100.00;99447.88;5030109;28;20028;-77
2024/01/19 02:47:12;;;;;;;53.97;33.05;;;;;;;6.60;100.00;99462.59;5030931;28;20675;-77
2024/01/19 02:49:37;;;;;;;47.42;33.47;;;;;;;6.48;100.00;99439.06;5031281;28;20029;-77
2024/01/19 02:52:03;;;;;;;49.05;33.17;;;;;;;6.59;100.00;99467.66;5030809;28;20036;-76
2024/01/19 02:54:29;;;;;;;46.88;31.52;;;;;;;6.31;100.00;99423.91;5030860;28;20048;-77
2024/01/19 02:56:54;;;;;;;50.20;32.63;;;;;;;6.16;100.00;99387.47;5031790;28;20029;-77
2024/01/19 02:59:20;;;;;;;49.25;33.00;;;;;;;6.70;100.00;99473.19;5031244;28;20041;-77
2024/01/19 03:01:45;;;;;;;46.97;33.33;;;;;;;6.43;100.00;99420.94;5032189;28;20076;-78
2024/01/19 03:04:11;;;;;;;50.50;33.22;;;;;;;6.61;100.00;99455.75;5030858;28;20061;-76
2024/01/19 03:06:37;;;;;;;48.38;33.50;;;;;;;6.50;100.00;99450.22;5030979;28;20040;-78
2024/01/19 03:09:03;;;;;;;48.95;32.80;;;;;;;6.48;100.00;99433.94;5030715;28;20033;-77
2024/01/19 03:11:29;;;;;;;46.58;33.45;;;;;;;6.75;100.00;99466.50;5031804;28;20049;-80
2024/01/19 03:13:54;;;;;;;45.95;32.42;;;;;;;6.31;100.00;99393.16;5030698;28;20488;-81
2024/01/19 03:16:20;;;;;;;49.33;33.97;;;;;;;6.75;100.00;99469.06;5031048;28;20064;-77
2024/01/19 03:18:45;;;;;;;50.92;32.83;;;;;;;6.49;100.00;99420.28;5029493;28;20033;-77
2024/01/19 03:21:12;;;;;;;49.45;34.22;;;;;;;6.22;100.00;99390.25;5030832;28;20056;-77
2024/01/19 03:23:38;;;;;;;55.20;36.55;;;;;;;6.52;100.00;99438.34;5030429;28;20164;-78
2024/01/19 03:26:04;;;;;;;53.10;36.30;;;;;;;6.63;100.00;99442.16;5030519;28;20041;-78
2024/01/19 03:28:30;;;;;;;50.80;35.22;;;;;;;6.72;100.00;99457.03;5027540;28;20037;-79
2024/01/19 03:30:55;;;;;;;51.03;34.92;;;;;;;6.55;100.00;99435.88;5011503;28;20634;-82
2024/01/19 03:33:21;;;;;;;50.22;33.70;;;;;;;6.44;100.00;99419.25;5029371;28;20181;-78
2024/01/19 03:35:48;;;;;;;47.65;33.22;;;;;;;6.61;100.00;99451.50;5030433;28;20025;-83
2024/01/19 03:38:13;;;;;;;50.17;31.33;;;;;;;6.66;100.00;99461.06;5029746;28;20044;-79
2024/01/19 03:40:39;;;;;;;48.47;31.33;;;;;;;6.50;100.00;99439.13;5030502;28;20027;-77
2024/01/19 03:43:04;;;;;;;43.88;31.90;;;;;;;6.71;100.00;99475.78;5030166;28;20100;-77
2024/01/19 03:45:30;;;;;;;45.88;31.15;;;;;;;6.68;100.00;99488.50;5031075;28;20025;-77
2024/01/19 03:47:55;;;;;;;48.72;31.85;;;;;;;6.71;100.00;99488.63;5029920;28;20519;-77
2024/01/19 03:50:22;;;;;;;48.50;32.85;;;;;;;6.41;100.00;99434.53;5031257;28;20472;-78
2024/01/19 03:52:48;;;;;;;48.05;31.48;;;;;;;6.72;100.00;99482.66;5030117;28;20028;-79
2024/01/19 03:55:15;;;;;;;47.80;31.85;;;;;;;6.58;100.00;99459.09;5030252;28;20037;-82
2024/01/19 03:57:41;;;;;;;49.80;30.92;;;;;;;6.54;100.00;99459.81;5029610;28;20064;-77
2024/01/19 04:00:07;;;;;;;52.45;35.13;;;;;;;6.51;100.00;99462.25;5028896;28;20057;-82
2024/01/19 04:02:33;;;;;;;50.00;31.08;;;;;;;6.69;100.00;99492.84;5028144;28;20022;-78
2024/01/19 04:04:58;;;;;;;46.28;29.95;;;;;;;6.65;100.00;99493.50;5029958;28;20028;-76
2024/01/19 04:07:24;;;;;;;46.15;31.92;;;;;;;6.55;100.00;99482.03;5029915;28;20043;-77
2024/01/19 04:09:49;;;;;;;47.65;31.98;;;;;;;6.72;100.00;99498.06;5029245;28;20070;-77
2024/01/19 04:12:17;;;;;;;44.72;30.60;;;;;;;6.75;100.00;99502.44;5029802;28;20033;-77
2024/01/19 04:14:44;;;;;;;43.90;31.00;;;;;;;6.65;100.00;99475.56;5029394;28;20029;-78
2024/01/19 04:17:11;;;;;;;43.42;30.50;;;;;;;6.79;100.00;99514.53;5029583;28;20046;-77
2024/01/19 04:19:38;;;;;;;42.28;28.98;;;;;;;6.80;100.00;99512.06;5025443;28;20148;-77
2024/01/19 04:22:04;;;;;;;43.63;29.35;;;;;;;6.85;100.00;99512.19;5027668;28;20040;-75
2024/01/19 04:24:29;;;;;;;40.15;28.00;;;;;;;6.90;100.00;99518.41;5029623;28;20412;-74
2024/01/19 04:26:55;;;;;;;43.00;29.75;;;;;;;6.68;100.00;99485.06;5028269;28;20045;-75
2024/01/19 04:29:21;;;;;;;47.58;29.13;;;;;;;6.89;100.00;99526.91;5029384;28;20406;-78
2024/01/19 04:31:46;;;;;;;44.70;30.90;;;;;;;6.77;100.00;99517.06;5029573;28;20025;-76
2024/01/19 04:34:12;;;;;;;45.60;28.88;;;;;;;6.85;100.00;99524.16;5027950;28;20049;-76
2024/01/19 04:36:37;;;;;;;43.88;29.77;;;;;;;6.83;100.00;99520.66;5029004;28;20052;-79
2024/01/19 04:39:04;;;;;;;49.70;33.60;;;;;;;6.85;100.00;99511.34;5029577;28;20064;-77
2024/01/19 04:41:29;;;;;;;44.38;31.10;;;;;;;6.88;100.00;99537.97;5029255;28;20030;-80
2024/01/19 04:43:55;;;;;;;44.55;30.15;;;;;;;6.82;100.00;99512.09;5029799;28;20406;-77
2024/01/19 04:46:20;;;;;;;45.90;28.58;;;;;;;6.84;100.00;99517.28;5030208;28;20038;-77
2024/01/19 04:48:46;;;;;;;40.25;28.17;;;;;;;6.96;100.00;99533.13;5029578;28;20044;-77
2024/01/19 04:51:11;;;;;;;43.65;28.77;;;;;;;6.99;100.00;99547.75;5029738;28;20045;-77
2024/01/19 04:53:37;;;;;;;41.55;28.13;;;;;;;6.83;100.00;99511.28;5030100;28;20029;-81
2024/01/19 04:56:06;;;;;;;44.55;30.30;;;;;;;6.68;100.00;99490.19;5028600;28;20052;-77
2024/01/19 04:58:33;;;;;;;41.03;28.00;;;;;;;6.83;100.00;99513.84;5027837;28;20033;-77
2024/01/19 05:00:59;;;;;;;41.83;28.23;;;;;;;6.83;100.00;99516.41;5029364;28;20030;-79
2024/01/19 05:03:24;;;;;;;44.00;29.38;;;;;;;6.60;100.00;99472.84;5024406;28;20022;-77
2024/01/19 05:05:50;;;;;;;43.15;29.35;;;;;;;6.86;100.00;99526.78;5026231;28;20104;-77
2024/01/19 05:08:15;;;;;;;44.83;30.30;;;;;;;6.83;100.00;99521.56;5023288;28;20029;-77
2024/01/19 05:10:40;;;;;;;47.55;30.23;;;;;;;6.81;100.00;99525.75;5022664;28;20091;-77
2024/01/19 05:13:06;;;;;;;47.55;31.52;;;;;;;6.84;100.00;99523.31;5016396;28;20037;-76
2024/01/19 05:15:32;;;;;;;47.72;32.78;;;;;;;6.78;100.00;99523.06;5026071;28;20450;-78
2024/01/19 05:17:57;;;;;;;47.90;31.55;;;;;;;6.72;100.00;99517.72;5018624;28;20049;-77
2024/01/19 05:20:23;;;;;;;49.63;31.25;;;;;;;6.63;100.00;99511.41;5027372;28;20038;-77
2024/01/19 05:22:48;;;;;;;47.88;32.17;;;;;;;6.70;100.00;99538.16;5028577;28;20034;-77
2024/01/19 05:25:18;;;;;;;49.63;33.13;;;;;;;6.56;100.00;99519.69;5028945;28;20033;-78
2024/01/19 05:27:44;;;;;;;52.70;33.15;;;;;;;6.68;100.00;99544.06;5029833;28;20033;-78
2024/01/19 05:30:13;;;;;;;51.10;32.67;;;;;;;6.67;100.00;99539.72;5028363;28;20048;-79
2024/01/19 05:32:39;;;;;;;50.78;32.60;;;;;;;6.59;100.00;99524.97;5028859;28;20480;-78
2024/01/19 05:35:05;;;;;;;43.88;30.15;;;;;;;6.73;100.00;99545.09;5029768;28;20144;-80
2024/01/19 05:37:31;;;;;;;44.30;29.55;;;;;;;6.44;100.00;99508.97;5029083;28;20551;-78
2024/01/19 05:39:56;;;;;;;45.45;29.67;;;;;;;6.54;100.00;99538.41;5032393;28;20057;-77
2024/01/19 05:42:22;;;;;;;42.40;29.02;;;;;;;6.48;100.00;99557.00;5031811;28;20032;-77
2024/01/19 05:44:48;;;;;;;41.75;28.55;;;;;;;6.36;100.00;99548.84;5032099;28;20037;-82
2024/01/19 05:47:13;;;;;;;51.45;30.05;;;;;;;5.83;100.00;99469.84;5032625;28;20033;-78
2024/01/19 05:49:42;;;;;;;47.70;32.42;;;;;;;6.12;100.00;99545.38;5032571;28;20088;-78
2024/01/19 05:52:07;;;;;;;50.55;31.58;;;;;;;6.18;100.00;99549.88;5032658;28;20065;-76
2024/01/19 05:54:34;;;;;;;53.05;34.42;;;;;;;6.24;100.00;99575.75;5033561;28;20060;-78
2024/01/19 05:56:59;;;;;;;55.22;36.17;;;;;;;6.12;100.00;99550.50;5032983;28;20029;-77
2024/01/19 05:59:25;;;;;;;48.72;32.40;;;;;;;5.93;100.00;99507.88;5032855;28;20087;-77
2024/01/19 06:01:50;;;;;;;46.67;31.35;;;;;;;6.15;100.00;99539.47;5033479;28;20065;-77
2024/01/19 06:04:16;;;;;;;46.47;31.05;;;;;;;6.06;100.00;99513.50;5029785;28;20119;-75
2024/01/19 06:06:41;;;;;;;89.53;59.38;;;;;;;6.44;100.00;99573.06;5032400;28;20049;-77
2024/01/19 06:09:07;;;;;;;56.97;36.92;;;;;;;6.31;100.00;99548.66;5031255;28;20033;-77
2024/01/19 06:11:33;;;;;;;48.58;32.22;;;;;;;6.44;100.00;99578.19;5031480;28;20028;-83
2024/01/19 06:14:00;;;;;;;61.30;35.90;;;;;;;6.29;100.00;99555.41;5033108;28;20030;-84
2024/01/19 06:16:26;;;;;;;56.58;35.38;;;;;;;6.54;100.00;99593.16;5030506;28;20401;-78
2024/01/19 06:18:51;;;;;;;55.38;34.72;;;;;;;6.48;100.00;99578.38;5032198;28;20090;-79
2024/01/19 06:21:17;;;;;;;50.83;33.40;;;;;;;6.44;100.00;99575.63;5031125;28;20030;-77
2024/01/19 06:23:44;;;;;;;54.97;35.00;;;;;;;6.40;100.00;99569.50;5031768;28;20408;-78
2024/01/19 06:26:10;;;;;;;54.65;34.60;;;;;;;6.39;100.00;99565.22;5031592;28;20423;-75
2024/01/19 06:28:36;;;;;;;85.25;56.28;;;;;;;5.94;100.00;99490.78;5031831;28;20030;-78
2024/01/19 06:31:05;;;;;;;82.80;52.92;;;;;;;6.36;100.00;99571.91;5031558;28;20032;-79
2024/01/19 06:33:31;;;;;;;71.25;46.17;;;;;;;6.48;100.00;99580.09;5032050;28;20083;-77
2024/01/19 06:35:56;;;;;;;63.08;39.88;;;;;;;6.46;100.00;99582.56;5027365;28;20115;-78
2024/01/19 06:38:23;;;;;;;66.50;43.22;;;;;;;5.98;100.00;99526.88;5031730;28;20059;-81
2024/01/19 06:40:49;;;;;;;67.60;43.25;;;;;;;5.74;100.00;99492.56;5031630;28;20060;-79
2024/01/19 06:43:15;;;;;;;58.80;39.88;;;;;;;6.29;100.00;99596.41;5029648;28;20163;-76
2024/01/19 06:45:40;;;;;;;61.58;40.53;;;;;;;6.26;100.00;99596.31;5030305;28;20124;-76
2024/01/19 06:48:06;;;;;;;51.67;34.78;;;;;;;5.87;100.00;99535.78;5031240;28;20033;-79
2024/01/19 06:50:31;;;;;;;50.25;32.13;;;;;;;6.31;100.00;99605.91;5030814;28;20029;-76
2024/01/19 06:52:59;;;;;;;68.85;43.05;;;;;;;6.44;100.00;99621.78;5031236;28;20130;-76
2024/01/19 06:55:25;;;;;;;58.55;37.70;;;;;;;5.95;100.00;99541.22;5031959;28;20056;-77
2024/01/19 06:57:51;;;;;;;60.03;36.15;;;;;;;6.41;100.00;99627.66;5031535;28;20073;-76
2024/01/19 07:00:18;;;;;;;59.28;36.75;;;;;;;6.44;100.00;99632.94;5031634;28;20033;-76
2024/01/19 07:02:44;;;;;;;58.83;37.88;;;;;;;6.40;100.00;99617.34;5031893;28;20613;-78
2024/01/19 07:05:10;;;;;;;64.05;39.28;;;;;;;6.59;100.00;99632.66;5031285;28;20048;-76
2024/01/19 07:07:35;;;;;;;65.60;41.08;;;;;;;6.71;100.00;99626.25;5032333;28;20452;-78
2024/01/19 07:10:01;;;;;;;71.57;42.53;;;;;;;6.67;100.00;99596.16;5031897;28;20424;-76
2024/01/19 07:12:27;;;;;;;67.55;43.17;;;;;;;6.89;100.00;99616.72;5009098;28;20076;-76
2024/01/19 07:14:52;;;;;;;66.07;43.63;;;;;;;7.01;100.00;99613.72;5009307;28;20065;-77
2024/01/19 07:17:18;;;;;;;69.32;41.85;;;;;;;7.27;100.00;99626.66;5008908;28;20638;-79
2024/01/19 07:19:43;;;;;;;68.20;42.50;;;;;;;6.90;100.00;99541.50;5009876;28;20042;-78
2024/01/19 07:22:09;;;;;;;65.22;40.85;;;;;;;7.37;100.00;99618.44;5008909;28;20049;-79
2024/01/19 07:24:35;;;;;;;60.42;39.05;;;;;;;7.48;100.00;99615.38;4989264;28;20097;-77
2024/01/19 07:27:02;;;;;;;60.03;38.58;;;;;;;7.57;100.00;99615.72;4989753;28;20045;-80
2024/01/19 07:29:28;;;;;;;63.28;37.97;;;;;;;7.74;100.00;99639.44;4984889;28;20039;-76
2024/01/19 07:31:55;;;;;;;52.05;34.33;;;;;;;7.81;100.00;99632.81;4989160;28;20034;-77
2024/01/19 07:34:20;;;;;;;49.40;33.97;;;;;;;7.91;100.00;99647.72;4973280;28;20042;-77
2024/01/19 07:36:46;;;;;;;45.83;32.92;;;;;;;8.05;100.00;99648.19;4989085;28;20046;-77
2024/01/19 07:39:12;;;;;;;46.30;31.25;;;;;;;7.83;100.00;99585.78;4972597;28;20112;-78
2024/01/19 07:41:37;;;;;;;52.70;35.13;;;;;;;8.09;100.00;99627.78;4973152;28;20062;-77
2024/01/19 07:44:03;;;;;;;42.50;30.02;;;;;;;7.78;100.00;99567.63;5001288;28;20046;-77
2024/01/19 07:46:28;;;;;;;42.88;31.08;;;;;;;8.22;100.00;99628.19;5029031;28;20099;-80
2024/01/19 07:48:54;;;;;;;40.17;29.98;;;;;;;8.33;100.00;99629.41;5028170;28;20071;-77
2024/01/19 07:51:20;;;;;;;43.50;28.17;;;;;;;8.29;100.00;99616.38;5027947;28;20084;-76
2024/01/19 07:53:46;;;;;;;42.90;29.58;;;;;;;8.19;100.00;99580.09;5028015;28;20029;-76
2024/01/19 07:56:11;;;;;;;43.25;30.48;;;;;;;8.28;100.00;99582.09;5029866;28;20431;-75
2024/01/19 07:58:37;;;;;;;48.45;34.45;;;;;;;8.34;100.00;99574.59;5030424;28;20083;-74
2024/01/19 08:01:03;;;;;;;45.30;34.58;;;;;;;8.80;100.00;99629.19;5031250;28;20579;-75
2024/01/19 08:03:29;;;;;;;52.28;37.40;;;;;;;8.85;100.00;99637.94;5030758;28;20033;-76
2024/01/19 08:05:55;;;;;;;46.25;31.98;;;;;;;8.52;100.00;99571.75;5030662;28;20028;-76
2024/01/19 08:08:20;;;;;;;43.03;30.80;;;;;;;8.67;100.00;99571.34;5030715;28;20033;-74
2024/01/19 08:10:46;;;;;;;40.65;27.70;;;;;;;9.06;100.00;99618.81;5030307;28;20033;-80
2024/01/19 08:13:12;;;;;;;41.58;27.65;;;;;;;8.99;100.00;99607.44;5028893;28;20029;-76
2024/01/19 08:15:38;;;;;;;42.22;28.00;;;;;;;8.98;100.00;99591.97;5028350;28;20099;-76
2024/01/19 08:18:04;;;;;;;37.50;26.90;;;;;;;9.16;100.00;99618.25;5024823;28;20050;-77
2024/01/19 08:20:31;;;;;;;38.08;28.70;;;;;;;9.09;100.00;99587.13;5028461;28;20049;-76
2024/01/19 08:22:57;;;;;;;39.38;28.02;;;;;;;9.50;100.00;99639.78;5011356;28;20041;-77
2024/01/19 08:25:23;;;;;;;30.42;22.77;;;;;;;9.47;100.00;99613.06;5027330;28;20574;-77
2024/01/19 08:27:49;;;;;;;27.17;21.05;;;;;;;9.69;100.00;99635.16;4993640;28;20038;-77
2024/01/19 08:30:19;;;;;;;28.75;20.60;;;;;;;9.69;100.00;99619.69;5027272;28;20045;-77
2024/01/19 08:32:45;;;;;;;29.13;19.92;;;;;;;9.85;100.00;99637.28;4995115;28;20423;-76
2024/01/19 08:35:11;;;;;;;24.77;18.83;;;;;;;10.04;100.00;99651.56;5027379;28;20048;-77
2024/01/19 08:37:37;;;;;;;26.73;18.45;;;;;;;10.12;100.00;99644.00;5027915;28;20034;-76
2024/01/19 08:40:10;;;;;;;22.88;15.68;;;;;;;10.17;100.00;99639.84;5027485;28;20053;-77
2024/01/19 08:42:36;;;;;;;21.27;15.20;;;;;;;10.23;100.00;99628.81;5027572;28;20041;-76
2024/01/19 08:45:02;;;;;;;22.30;15.52;;;;;;;10.29;100.00;99638.41;5027276;28;20044;-77
2024/01/19 08:47:28;;;;;;;24.63;17.08;;;;;;;10.17;100.00;99610.59;5029146;28;20427;-77
2024/01/19 08:49:54;;;;;;;24.00;17.05;;;;;;;10.04;100.00;99579.34;5029792;28;20029;-77
2024/01/19 08:52:20;;;;;;;25.05;18.17;;;;;;;10.00;100.00;99561.19;5029591;28;20033;-75
2024/01/19 08:54:45;;;;;;;26.10;17.30;;;;;;;10.35;100.00;99617.91;5030037;28;20128;-77
2024/01/19 08:57:11;;;;;;;26.25;18.60;;;;;;;10.57;100.00;99655.47;5029636;28;20128;-81
2024/01/19 08:59:37;;;;;;;22.60;15.60;;;;;;;10.22;100.00;99574.59;5029675;28;20033;-76
2024/01/19 09:02:03;;;;;;;20.80;14.82;;;;;;;10.74;100.00;99658.44;5029970;28;20052;-74
2024/01/19 09:04:28;;;;;;;22.70;15.00;;;;;;;10.91;100.00;99660.53;5029326;28;20030;-74
2024/01/19 09:06:55;;;;;;;23.52;15.70;;;;;;;10.52;100.00;99592.53;5029420;28;20036;-75
2024/01/19 09:09:21;;;;;;;24.38;18.40;;;;;;;10.73;100.00;99625.72;5029269;28;20037;-75
2024/01/19 09:11:46;;;;;;;25.17;17.42;;;;;;;10.96;100.00;99640.84;5029505;28;20114;-75
2024/01/19 09:14:13;;;;;;;24.40;17.92;;;;;;;11.18;100.00;99670.59;5029753;28;20061;-75
2024/01/19 09:16:44;;;;;;;23.80;17.88;;;;;;;11.09;100.00;99645.44;5029324;28;20533;-75
2024/01/19 09:19:12;;;;;;;21.95;16.85;;;;;;;11.35;100.00;99676.09;5027956;28;20025;-78
2024/01/19 09:21:45;;;;;;;23.23;16.90;;;;;;;11.39;100.00;99666.72;5027965;28;20056;-75
2024/01/19 09:24:11;;;;;;;20.25;14.95;;;;;;;11.53;100.00;99665.28;5025086;28;20038;-76
2024/01/19 09:26:37;;;;;;;18.73;13.63;;;;;;;11.60;100.00;99674.03;5027954;28;20030;-73
2024/01/19 09:29:04;;;;;;;22.88;15.23;;;;;;;11.61;100.00;99663.75;5029816;28;20435;-77
2024/01/19 09:31:30;;;;;;;21.05;15.88;;;;;;;11.73;100.00;99655.31;5029050;28;20563;-75
2024/01/19 09:33:55;;;;;;;19.80;14.25;;;;;;;11.86;100.00;99660.72;5029191;28;20124;-79
2024/01/19 09:36:20;;;;;;;23.17;14.38;;;;;;;11.55;100.00;99595.50;5029493;28;20018;-75
2024/01/19 09:38:46;;;;;;;16.13;12.20;;;;;;;11.96;100.00;99644.56;5029557;28;20110;-76
2024/01/19 09:41:25;;;;;;;20.33;11.55;;;;;;;12.16;100.00;99649.22;5029137;28;20029;-75
2024/01/19 09:43:54;;;;;;;17.63;10.80;;;;;;;12.32;100.00;99650.38;5028052;28;20546;-76
2024/01/19 09:46:30;;;;;;;16.73;10.60;;;;;;;12.56;100.00;99655.94;5028831;28;20059;-76
2024/01/19 09:48:59;;;;;;;14.43;10.55;;;;;;;12.61;100.00;99663.75;5022918;28;20454;-76
2024/01/19 09:51:40;;;;;;;17.38;11.35;;;;;;;12.29;100.00;99595.09;5029343;28;20055;-76
2024/01/19 09:54:08;;;;;;;17.08;11.95;;;;;;;12.72;100.00;99657.06;5028980;28;20415;-77
2024/01/19 09:56:35;;;;;;;16.35;11.43;;;;;;;12.77;100.00;99647.63;5028975;28;20045;-78
2024/01/19 09:59:03;;;;;;;19.30;12.23;;;;;;;12.70;100.00;99625.06;5028306;28;20088;-75
2024/01/19 10:01:29;;;;;;;17.60;11.45;;;;;;;12.94;100.00;99642.66;5029467;28;20060;-77
2024/01/19 10:03:58;;;;;;;17.25;11.50;;;;;;;12.67;100.00;99601.69;5028313;28;20060;-75
2024/01/19 10:06:26;;;;;;;17.80;11.75;;;;;;;12.72;100.00;99589.72;5027703;28;20045;-74
2024/01/19 10:08:55;;;;;;;19.80;12.43;;;;;;;13.13;100.00;99639.47;5027514;28;20037;-75
2024/01/19 10:11:21;;;;;;;14.90;11.10;;;;;;;13.06;100.00;99633.31;5027249;28;20029;-74
2024/01/19 10:13:47;;;;;;;17.40;10.02;;;;;;;13.15;100.00;99630.00;5021366;28;20291;-77
2024/01/19 10:16:12;;;;;;;16.02;10.50;;;;;;;13.13;100.00;99627.38;5028104;28;20061;-74
2024/01/19 10:18:40;;;;;;;14.57;9.65;;;;;;;13.11;100.00;99608.38;5023957;28;20552;-77
2024/01/19 10:21:06;;;;;;;14.90;9.73;;;;;;;13.39;100.00;99635.50;5025568;28;20030;-77
2024/01/19 10:23:31;;;;;;;16.40;11.45;;;;;;;13.17;100.00;99566.09;5022468;28;20460;-76
2024/01/19 10:26:12;;;;;;;14.93;10.55;;;;;;;13.52;100.00;99625.28;5029875;28;20148;-73
2024/01/19 10:28:39;;;;;;;14.95;9.32;;;;;;;13.65;100.00;99621.97;5027897;28;20037;-74
2024/01/19 10:31:18;;;;;;;13.73;8.98;;;;;;;13.53;100.00;99607.16;5031233;28;20026;-76
2024/01/19 10:33:48;;;;;;;14.65;8.93;;;;;;;13.31;100.00;99554.16;5030582;28;20036;-74
2024/01/19 10:36:14;;;;;;;13.50;8.10;;;;;;;13.62;100.00;99601.22;5027448;28;20427;-76
2024/01/19 10:38:39;;;;;;;14.70;8.65;;;;;;;13.74;100.00;99624.69;5031275;28;20048;-75
2024/01/19 10:41:14;;;;;;;13.88;10.65;;;;;;;13.52;100.00;99596.75;5027200;28;20036;-76
2024/01/19 10:43:40;;;;;;;16.00;10.57;;;;;;;13.71;100.00;99603.88;5031396;28;20065;-72
2024/01/19 10:46:32;;;;;;;16.65;10.52;;;;;;;13.78;100.00;99596.16;5029961;28;20504;-79
2024/01/19 10:49:04;;;;;;;12.27;9.40;;;;;;;13.56;100.00;99559.66;4982456;28;20524;-77
2024/01/19 10:51:30;;;;;;;13.00;9.60;;;;;;;13.97;100.00;99598.09;4987931;28;20039;-77
2024/01/19 10:54:04;;;;;;;15.27;10.00;;;;;;;14.20;100.00;99600.00;4953962;28;20146;-75
2024/01/19 10:56:30;;;;;;;14.18;9.18;;;;;;;14.32;100.00;99600.09;4988671;28;20528;-73
2024/01/19 10:59:08;;;;;;;19.15;10.05;;;;;;;14.43;100.00;99591.50;4987640;28;20049;-76
2024/01/19 11:01:33;;;;;;;13.02;8.98;;;;;;;14.36;100.00;99549.06;4981750;28;20035;-75
2024/01/19 11:04:00;;;;;;;11.80;8.20;;;;;;;14.22;100.00;99523.00;4988249;28;20034;-76
2024/01/19 11:06:26;;;;;;;12.38;8.15;;;;;;;14.62;100.00;99567.41;4988023;28;20043;-73
2024/01/19 11:08:51;;;;;;;13.45;7.82;;;;;;;14.18;100.00;99480.59;4946996;29;20438;-77
2024/01/19 11:11:20;;;;;;;10.43;7.43;;;;;;;14.82;100.00;99557.13;4936372;29;20039;-72
2024/01/19 11:13:49;;;;;;;8.15;6.18;;;;;;;15.05;100.00;99574.56;4944947;28;20050;-72